Time;durP1;ratioP1;P1;durP2;ratioP2;P2;SDS_P1;SDS_P2;PMS_P1;PMS_P2;Temp;Humidity;BMP_temperature;BMP_pressure;BME280_temperature;BME280_humidity;BME280_pressure;Samples;Min_cycle;Max_cycle;Signal;HPM_P1;HPM_P2
2021/07/09 00:01:47;;;;;;;;;;;;;;;;;;4905915;28;20046;-90
2021/07/09 00:04:33;;;;;;;;;;;;;;;;;;4953992;28;19934;-93
2021/07/09 00:07:13;;;;;;;;;;;;;;;;;;4974997;28;19926;-90
2021/07/09 00:09:47;;;;;;;;;;;;;;;;;;4982665;28;21296;-90
2021/07/09 00:12:16;;;;;;;;;;;;;;;;;;4977799;28;19926;-92
2021/07/09 00:15:09;;;;;;;;;;;;;;;;;;4968221;28;19930;-91
2021/07/09 00:18:02;;;;;;;;;;;;;;;;;;4963364;28;19934;-91
2021/07/09 00:20:36;;;;;;;;;;;;;;;;;;4957511;28;19926;-91
2021/07/09 00:23:18;;;;;;;;;;;;;;;;;;4968002;28;19941;-89
2021/07/09 00:25:48;;;;;;;;;;;;;;;;;;4985342;28;19926;-90
2021/07/09 00:28:17;;;;;;;;;;;;;;;;;;4973109;28;19927;-91
2021/07/09 00:30:45;;;;;;;;;;;;;;;;;;4970778;28;19952;-91
2021/07/09 00:33:14;;;;;;;;;;;;;;;;;;4956373;28;19927;-90
2021/07/09 00:35:44;;;;;;;;;;;;;;;;;;4966761;28;19927;-89
2021/07/09 00:38:13;;;;;;;;;;;;;;;;;;4990330;28;19933;-89
2021/07/09 00:40:41;;;;;;;;;;;;;;;;;;4983491;28;19926;-90
2021/07/09 00:50:33;;;;;;;;;;;;;;;;;;4939879;28;19934;-92
2021/07/09 00:53:04;;;;;;;;;;;;;;;;;;4969328;28;19933;-90
2021/07/09 00:55:36;;;;;;;;;;;;;;;;;;4973065;28;19926;-92
2021/07/09 00:58:07;;;;;;;;;;;;;;;;;;4969340;28;19930;-90
2021/07/09 01:00:40;;;;;;;;;;;;;;;;;;4973266;28;19934;-90
2021/07/09 01:03:11;;;;;;;;;;;;;;;;;;5002043;28;19931;-90
2021/07/09 01:05:42;;;;;;;;;;;;;;;;;;4954893;28;19926;-90
2021/07/09 01:08:10;;;;;;;;;;;;;;;;;;4969637;28;19933;-90
2021/07/09 01:10:39;;;;;;;;;;;;;;;;;;4982204;28;19926;-93
2021/07/09 01:13:08;;;;;;;;;;;;;;;;;;4970666;28;19930;-91
2021/07/09 01:15:37;;;;;;;;;;;;;;;;;;4975319;28;19926;-91
2021/07/09 01:18:34;;;;;;;;;;;;;;;;;;4954364;28;19926;-90
2021/07/09 01:21:30;;;;;;;;;;;;;;;;;;4975775;28;19924;-90
2021/07/09 01:32:52;;;;;;;;;;;;;;;;;;;;;
2021/07/09 01:43:34;;;;;;;;;;;;;;;;;;4955935;28;19926;-89
2021/07/09 01:46:23;;;;;;;;;;;;;;;;;;4934839;28;20314;-89
2021/07/09 01:49:41;;;;;;;;;;;;;;;;;;4924624;28;19927;-91
2021/07/09 01:52:15;;;;;;;;;;;;;;;;;;4951557;28;19927;-89
2021/07/09 01:54:43;;;;;;;;;;;;;;;;;;4938961;28;19927;-89
2021/07/09 01:57:14;;;;;;;;;;;;;;;;;;4934750;28;20348;-90
2021/07/09 01:59:43;;;;;;;;;;;;;;;;;;4948768;28;19927;-90
2021/07/09 02:02:12;;;;;;;;;;;;;;;;;;4933579;28;20709;-89
2021/07/09 02:04:45;;;;;;;;;;;;;;;;;;4946022;28;20445;-89
2021/07/09 02:07:14;;;;;;;;;;;;;;;;;;4935946;28;19926;-90
2021/07/09 02:09:43;;;;;;;;;;;;;;;;;;4963028;28;19926;-90
2021/07/09 02:12:12;;;;;;;;;;;;;;;;;;4937001;28;19934;-91
2021/07/09 02:14:40;;;;;;;;;;;;;;;;;;4948622;28;19917;-92
2021/07/09 02:17:10;;;;;;;;;;;;;;;;;;4955622;28;19914;-92
2021/07/09 02:19:39;;;;;;;;;;;;;;;;;;4951383;28;20362;-91
2021/07/09 02:22:09;;;;;;;;;;;;;;;;;;4966555;28;19941;-92
2021/07/09 02:24:38;;;;;;;;;;;;;;;;;;4965435;28;19930;-91
2021/07/09 02:27:06;;;;;;;;;;;;;;;;;;4952370;28;19926;-89
2021/07/09 02:29:35;;;;;;;;;;;;;;;;;;4966126;28;19933;-91
2021/07/09 02:32:05;;;;;;;;;;;;;;;;;;4956662;28;20290;-91
2021/07/09 02:34:34;;;;;;;;;;;;;;;;;;4964037;28;19926;-91
2021/07/09 02:37:04;;;;;;;;;;;;;;;;;;4979050;28;19926;-90
2021/07/09 02:39:35;;;;;;;;;;;;;;;;;;4965630;28;19934;-92
2021/07/09 02:42:04;;;;;;;;;;;;;;;;;;4994131;28;19926;-89
2021/07/09 02:44:32;;;;;;;;;;;;;;;;;;5005178;28;19926;-91
2021/07/09 02:47:01;;;;;;;;;;;;;;;;;;4960182;28;19941;-91
2021/07/09 02:49:29;;;;;;;;;;;;;;;;;;4966845;28;20459;-92
2021/07/09 02:51:58;;;;;;;;;;;;;;;;;;4999963;28;20325;-91
2021/07/09 02:54:26;;;;;;;;;;;;;;;;;;4958584;28;19946;-89
2021/07/09 02:56:56;;;;;;;;;;;;;;;;;;5019956;28;19934;-91
2021/07/09 02:59:25;;;;;;;;;;;;;;;;;;4967330;28;19926;-92
2021/07/09 03:01:53;;;;;;;;;;;;;;;;;;4964392;28;19941;-90
2021/07/09 03:04:22;;;;;;;;;;;;;;;;;;4983014;28;19938;-90
2021/07/09 03:06:50;;;;;;;;;;;;;;;;;;5000389;28;20282;-88
2021/07/09 03:09:19;;;;;;;;;;;;;;;;;;4964967;28;20095;-90
2021/07/09 03:11:47;;;;;;;;;;;;;;;;;;4972551;28;19927;-90
2021/07/09 03:14:17;;;;;;;;;;;;;;;;;;4988049;28;19945;-91
2021/07/09 03:16:45;;;;;;;;;;;;;;;;;;4952578;28;19937;-90
2021/07/09 03:19:14;;;;;;;;;;;;;;;;;;4964036;28;19934;-91
2021/07/09 03:21:42;;;;;;;;;;;;;;;;;;4959877;28;19926;-90
2021/07/09 03:24:10;;;;;;;;;;;;;;;;;;4964508;28;20317;-90
2021/07/09 03:26:39;;;;;;;;;;;;;;;;;;4963592;28;19933;-90
2021/07/09 03:29:07;;;;;;;;;;;;;;;;;;4959468;28;20317;-91
2021/07/09 03:31:37;;;;;;;;;;;;;;;;;;4981564;28;19926;-90
2021/07/09 03:34:05;;;;;;;;;;;;;;;;;;4961184;28;20350;-90
2021/07/09 03:36:33;;;;;;;;;;;;;;;;;;4964081;28;19926;-91
2021/07/09 03:39:01;;;;;;;;;;;;;;;;;;4970900;28;19933;-89
2021/07/09 03:41:29;;;;;;;;;;;;;;;;;;4964441;28;20477;-90
2021/07/09 03:43:58;;;;;;;;;;;;;;;;;;4968827;28;19941;-89
2021/07/09 03:46:26;;;;;;;;;;;;;;;;;;4980502;28;21094;-89
2021/07/09 03:48:55;;;;;;;;;;;;;;;;;;4965377;28;19933;-90
2021/07/09 03:51:24;;;;;;;;;;;;;;;;;;4964308;28;19927;-90
2021/07/09 03:53:54;;;;;;;;;;;;;;;;;;4970222;28;19927;-90
2021/07/09 03:56:23;;;;;;;;;;;;;;;;;;4944389;28;19933;-90
2021/07/09 03:58:51;;;;;;;;;;;;;;;;;;4969931;28;20085;-91
2021/07/09 04:01:19;;;;;;;;;;;;;;;;;;4961938;28;19926;-91
2021/07/09 04:03:48;;;;;;;;;;;;;;;;;;4975370;28;19930;-91
2021/07/09 04:06:17;;;;;;;;;;;;;;;;;;4978770;28;19927;-90
2021/07/09 04:08:46;;;;;;;;;;;;;;;;;;4993458;28;19926;-90
2021/07/09 04:11:14;;;;;;;;;;;;;;;;;;4966918;28;19934;-89
2021/07/09 04:13:42;;;;;;;;;;;;;;;;;;4943417;28;19926;-90
2021/07/09 04:16:10;;;;;;;;;;;;;;;;;;4963215;28;19926;-90
2021/07/09 04:18:42;;;;;;;;;;;;;;;;;;4946324;28;19930;-91
2021/07/09 04:21:10;;;;;;;;;;;;;;;;;;4980231;28;19933;-91
2021/07/09 04:23:40;;;;;;;;;;;;;;;;;;4975267;28;19933;-89
2021/07/09 04:26:08;;;;;;;;;;;;;;;;;;4964932;28;19926;-91
2021/07/09 04:28:37;;;;;;;;;;;;;;;;;;4941376;28;19927;-90
2021/07/09 04:31:05;;;;;;;;;;;;;;;;;;4959131;28;19933;-90
2021/07/09 04:33:33;;;;;;;;;;;;;;;;;;4964484;28;19927;-89
2021/07/09 04:36:01;;;;;;;;;;;;;;;;;;4947149;28;19926;-91
2021/07/09 04:38:29;;;;;;;;;;;;;;;;;;4960662;28;19926;-89
2021/07/09 04:40:59;;;;;;;;;;;;;;;;;;4964041;28;19941;-88
2021/07/09 04:43:27;;;;;;;;;;;;;;;;;;4945593;28;19934;-90
2021/07/09 04:45:56;;;;;;;;;;;;;;;;;;4959074;28;20677;-89
2021/07/09 04:48:24;;;;;;;;;;;;;;;;;;4963085;28;20155;-89
2021/07/09 04:50:53;;;;;;;;;;;;;;;;;;4962231;28;19930;-88
2021/07/09 04:53:21;;;;;;;;;;;;;;;;;;4976561;28;19930;-91
2021/07/09 04:55:49;;;;;;;;;;;;;;;;;;4956522;28;19930;-90
2021/07/09 04:58:19;;;;;;;;;;;;;;;;;;4945546;28;19926;-90
2021/07/09 05:00:47;;;;;;;;;;;;;;;;;;4977631;28;19933;-90
2021/07/09 05:03:15;;;;;;;;;;;;;;;;;;4945619;28;19934;-91
2021/07/09 05:05:44;;;;;;;;;;;;;;;;;;4975912;28;19930;-90
2021/07/09 05:08:12;;;;;;;;;;;;;;;;;;4982900;28;19937;-90
2021/07/09 05:10:40;;;;;;;;;;;;;;;;;;5011295;28;19908;-86
2021/07/09 05:13:08;;;;;;;;;;;;;;;;;;4983253;28;19910;-86
2021/07/09 05:15:38;;;;;;;;;;;;;;;;;;4971198;28;19926;-89
2021/07/09 05:18:07;;;;;;;;;;;;;;;;;;4957323;28;19930;-89
2021/07/09 05:20:35;;;;;;;;;;;;;;;;;;4949973;28;19930;-88
2021/07/09 05:23:03;;;;;;;;;;;;;;;;;;4954878;28;20150;-89
2021/07/09 05:25:31;;;;;;;;;;;;;;;;;;4989564;28;19934;-89
2021/07/09 05:27:59;;;;;;;;;;;;;;;;;;4973794;28;19926;-90
2021/07/09 05:30:28;;;;;;;;;;;;;;;;;;4965657;28;19930;-89
2021/07/09 05:32:57;;;;;;;;;;;;;;;;;;4973808;28;19948;-90
2021/07/09 05:35:26;;;;;;;;;;;;;;;;;;4970878;28;19926;-89
2021/07/09 05:37:54;;;;;;;;;;;;;;;;;;4971919;28;19934;-90
2021/07/09 05:40:22;;;;;;;;;;;;;;;;;;4971131;28;19930;-90
2021/07/09 05:42:53;;;;;;;;;;;;;;;;;;5005087;28;19927;-90
2021/07/09 05:45:21;;;;;;;;;;;;;;;;;;4969024;28;20413;-88
2021/07/09 05:47:49;;;;;;;;;;;;;;;;;;4968742;28;19953;-89
2021/07/09 05:50:19;;;;;;;;;;;;;;;;;;4965339;28;19926;-89
2021/07/09 05:52:48;;;;;;;;;;;;;;;;;;4983578;28;19960;-88
2021/07/09 05:55:16;;;;;;;;;;;;;;;;;;4953392;28;19926;-86
2021/07/09 05:57:44;;;;;;;;;;;;;;;;;;4946550;28;19939;-87
2021/07/09 06:00:13;;;;;;;;;;;;;;;;;;4945880;28;19934;-87
2021/07/09 06:02:41;;;;;;;;;;;;;;;;;;4972743;28;19934;-88
2021/07/09 06:05:10;;;;;;;;;;;;;;;;;;4970316;28;20400;-88
2021/07/09 06:07:39;;;;;;;;;;;;;;;;;;4958347;28;19926;-88
2021/07/09 06:10:08;;;;;;;;;;;;;;;;;;4976619;28;19931;-87
2021/07/09 06:12:36;;;;;;;;;;;;;;;;;;4977127;28;19926;-88
2021/07/09 06:15:04;;;;;;;;;;;;;;;;;;4972937;28;19937;-88
2021/07/09 06:17:34;;;;;;;;;;;;;;;;;;4976696;28;19926;-89
2021/07/09 06:20:05;;;;;;;;;;;;;;;;;;4954044;28;19933;-88
2021/07/09 06:22:33;;;;;;;;;;;;;;;;;;4974651;28;20425;-87
2021/07/09 06:25:03;;;;;;;;;;;;;;;;;;4972440;28;19934;-87
2021/07/09 06:27:32;;;;;;;;;;;;;;;;;;4971390;28;19934;-89
2021/07/09 06:30:00;;;;;;;;;;;;;;;;;;4988339;28;20503;-89
2021/07/09 06:32:28;;;;;;;;;;;;;;;;;;4976551;28;19926;-89
2021/07/09 06:34:57;;;;;;;;;;;;;;;;;;4972755;28;19926;-89
2021/07/09 06:37:25;;;;;;;;;;;;;;;;;;4975903;28;19937;-89
2021/07/09 06:39:53;;;;;;;;;;;;;;;;;;4991643;28;19930;-88
2021/07/09 06:42:23;;;;;;;;;;;;;;;;;;4968845;28;19926;-85
2021/07/09 06:44:51;;;;;;;;;;;;;;;;;;4959575;28;19926;-83
2021/07/09 06:47:20;;;;;;;;;;;;;;;;;;4958518;28;20418;-84
2021/07/09 06:49:49;;;;;;;;;;;;;;;;;;4963657;28;19949;-85
2021/07/09 06:52:17;;;;;;;;;;;;;;;;;;4960409;28;19926;-86
2021/07/09 06:57:49;;;;;;;;;;;;;;;;;;4954645;28;19937;-88
2021/07/09 07:00:18;;;;;;;;;;;;;;;;;;4951363;28;20133;-89
2021/07/09 07:02:47;;;;;;;;;;;;;;;;;;4951653;28;19937;-88
2021/07/09 07:05:38;;;;;;;;;;;;;;;;;;4976748;28;19926;-88
2021/07/09 07:08:13;;;;;;;;;;;;;;;;;;4966128;28;19953;-88
2021/07/09 07:10:45;;;;;;;;;;;;;;;;;;4975388;28;19934;-89
2021/07/09 07:13:14;;;;;;;;;;;;;;;;;;4978716;28;19933;-88
2021/07/09 07:15:43;;;;;;;;;;;;;;;;;;4995585;28;20420;-88
2021/07/09 07:18:12;;;;;;;;;;;;;;;;;;4955011;28;19926;-88
2021/07/09 07:20:41;;;;;;;;;;;;;;;;;;5014476;28;19925;-88
2021/07/09 07:23:10;;;;;;;;;;;;;;;;;;4961602;28;19933;-88
2021/07/09 07:25:40;;;;;;;;;;;;;;;;;;4980867;28;20408;-87
2021/07/09 07:28:08;;;;;;;;;;;;;;;;;;4953546;28;19933;-89
2021/07/09 07:30:41;;;;;;;;;;;;;;;;;;4965672;28;19949;-88
2021/07/09 07:33:10;;;;;;;;;;;;;;;;;;4981249;28;19924;-88
2021/07/09 07:35:38;;;;;;;;;;;;;;;;;;4946698;28;19933;-88
2021/07/09 07:38:19;;;;;;;;;;;;;;;;;;5004760;28;20319;-89
2021/07/09 07:40:47;;;;;;;;;;;;;;;;;;4964754;28;19926;-88
2021/07/09 07:43:15;;;;;;;;;;;;;;;;;;4972215;28;19930;-88
2021/07/09 07:45:44;;;;;;;;;;;;;;;;;;5013320;28;19925;-88
2021/07/09 07:48:13;;;;;;;;;;;;;;;;;;4955006;28;19934;-88
2021/07/09 07:50:41;;;;;;;;;;;;;;;;;;4954033;28;19957;-89
2021/07/09 07:56:51;;;;;;;;;;;;;;;;;;4954511;28;19934;-89
2021/07/09 07:59:19;;;;;;;;;;;;;;;;;;4948754;28;19941;-89
2021/07/09 08:01:49;;;;;;;;;;;;;;;;;;4954676;28;19945;-89
2021/07/09 08:04:17;;;;;;;;;;;;;;;;;;4943569;28;19933;-87
2021/07/09 08:06:46;;;;;;;;;;;;;;;;;;4983424;28;20304;-89
2021/07/09 08:09:15;;;;;;;;;;;;;;;;;;4989072;28;19926;-90
2021/07/09 08:11:43;;;;;;;;;;;;;;;;;;4970469;28;19926;-90
2021/07/09 08:14:11;;;;;;;;;;;;;;;;;;4985870;28;20317;-87
2021/07/09 08:16:51;;;;;;;;;;;;;;;;;;4978959;28;19937;-90
2021/07/09 08:23:49;;;;;;;;;;;;;;;;;;4975034;28;19937;-90
2021/07/09 08:30:46;;;;;;;;;;;;;;;;;;4969898;28;19949;-90
2021/07/09 08:33:51;;;;;;;;;;;;;;;;;;4954895;28;19926;-89
2021/07/09 08:36:23;;;;;;;;;;;;;;;;;;4957429;28;20313;-90
2021/07/09 08:38:53;;;;;;;;;;;;;;;;;;4963210;28;19933;-89
2021/07/09 08:41:22;;;;;;;;;;;;;;;;;;5006815;28;19926;-89
2021/07/09 08:43:50;;;;;;;;;;;;;;;;;;4977987;28;19926;-89
2021/07/09 08:46:20;;;;;;;;;;;;;;;;;;4953512;28;19926;-90
2021/07/09 08:48:59;;;;;;;;;;;;;;;;;;4964658;28;19930;-90
2021/07/09 08:51:27;;;;;;;;;;;;;;;;;;4947499;28;20313;-90
2021/07/09 08:53:57;;;;;;;;;;;;;;;;;;4958773;28;19926;-91
2021/07/09 08:56:25;;;;;;;;;;;;;;;;;;4945403;28;19937;-89
2021/07/09 10:59:59;;;;;;;;;;;;;;;;;;5020985;28;19933;-88
2021/07/09 11:02:42;;;;;;;;;;;;;;;;;;5056879;28;19909;-87
2021/07/09 11:05:11;;;;;;;;;;;;;;;;;;5015980;28;19929;-88
2021/07/09 11:07:39;;;;;;;;;;;;;;;;;;5003857;28;20644;-87
2021/07/09 11:10:13;;;;;;;;;;;;;;;;;;4998993;28;20298;-88
2021/07/09 11:12:46;;;;;;;;;;;;;;;;;;4997686;28;19926;-88
2021/07/09 11:15:16;;;;;;;;;;;;;;;;;;4959088;28;19941;-87
2021/07/09 11:17:44;;;;;;;;;;;;;;;;;;4993707;28;19929;-88
2021/07/09 11:20:20;;;;;;;;;;;;;;;;;;4980036;28;20327;-88
2021/07/09 11:22:53;;;;;;;;;;;;;;;;;;4962645;28;19936;-87
2021/07/09 11:25:21;;;;;;;;;;;;;;;;;;4965675;28;19930;-85
2021/07/09 11:27:49;;;;;;;;;;;;;;;;;;4977856;28;19925;-86
2021/07/09 11:30:23;;;;;;;;;;;;;;;;;;4980336;28;20289;-84
2021/07/09 11:32:55;;;;;;;;;;;;;;;;;;4977082;28;19933;-85
2021/07/09 11:35:24;;;;;;;;;;;;;;;;;;4973378;28;19926;-86
2021/07/09 11:37:53;;;;;;;;;;;;;;;;;;5008176;28;19936;-86
2021/07/09 11:40:21;;;;;;;;;;;;;;;;;;4966820;28;19936;-85
2021/07/09 11:42:49;;;;;;;;;;;;;;;;;;4980872;28;19926;-85
2021/07/09 11:45:23;;;;;;;;;;;;;;;;;;4965047;28;19934;-85
2021/07/09 11:47:51;;;;;;;;;;;;;;;;;;4993949;28;20297;-85
2021/07/09 11:50:20;;;;;;;;;;;;;;;;;;4991480;28;19932;-85
2021/07/09 11:52:51;;;;;;;;;;;;;;;;;;4993346;28;19934;-84
2021/07/09 11:55:21;;;;;;;;;;;;;;;;;;4995284;28;19926;-86
2021/07/09 11:57:52;;;;;;;;;;;;;;;;;;4977734;28;19949;-85
2021/07/09 12:00:22;;;;;;;;;;;;;;;;;;4973304;28;20306;-86
2021/07/09 12:02:51;;;;;;;;;;;;;;;;;;4988998;28;19929;-87
2021/07/09 12:05:20;;;;;;;;;;;;;;;;;;4995321;28;19930;-87
2021/07/09 12:07:48;;;;;;;;;;;;;;;;;;4960174;28;19933;-87
2021/07/09 12:10:18;;;;;;;;;;;;;;;;;;5008729;28;19952;-88
2021/07/09 12:12:47;;;;;;;;;;;;;;;;;;4960518;28;20321;-86
2021/07/09 12:15:17;;;;;;;;;;;;;;;;;;4994320;28;19929;-88
2021/07/09 12:17:47;;;;;;;;;;;;;;;;;;4979044;28;20714;-88
2021/07/09 12:20:20;;;;;;;;;;;;;;;;;;5021197;28;19925;-88
2021/07/09 12:22:49;;;;;;;;;;;;;;;;;;4992561;28;19930;-87
2021/07/09 12:25:20;;;;;;;;;;;;;;;;;;4964146;28;19926;-87
2021/07/09 12:27:48;;;;;;;;;;;;;;;;;;4980089;28;20402;-88
2021/07/09 12:30:17;;;;;;;;;;;;;;;;;;4983688;28;19933;-89
2021/07/09 12:32:46;;;;;;;;;;;;;;;;;;4957346;28;19930;-89
2021/07/09 12:35:14;;;;;;;;;;;;;;;;;;4990761;28;20666;-87
2021/07/09 12:37:43;;;;;;;;;;;;;;;;;;4985263;28;20300;-88
2021/07/09 12:40:12;;;;;;;;;;;;;;;;;;4985318;28;19932;-87
2021/07/09 12:42:42;;;;;;;;;;;;;;;;;;4985518;28;19941;-88
2021/07/09 12:45:11;;;;;;;;;;;;;;;;;;4974749;28;20202;-88
2021/07/09 12:47:50;;;;;;;;;;;;;;;;;;4995386;28;19929;-89
2021/07/09 12:50:26;;;;;;;;;;;;;;;;;;5001383;28;20317;-88
2021/07/09 12:52:54;;;;;;;;;;;;;;;;;;4972036;28;19929;-87
2021/07/09 12:55:43;;;;;;;;;;;;;;;;;;4956720;28;19945;-88
2021/07/09 12:58:13;;;;;;;;;;;;;;;;;;4967036;28;19930;-88
2021/07/09 13:00:44;;;;;;;;;;;;;;;;;;4954462;28;19932;-88
2021/07/09 13:03:13;;;;;;;;;;;;;;;;;;4986466;28;19925;-87
2021/07/09 13:05:41;;;;;;;;;;;;;;;;;;4959463;28;19933;-88
2021/07/09 13:08:10;;;;;;;;;;;;;;;;;;5001953;28;20316;-88
2021/07/09 13:10:38;;;;;;;;;;;;;;;;;;5011081;28;20297;-88
2021/07/09 13:13:19;;;;;;;;;;;;;;;;;;4956940;28;20310;-87
2021/07/09 13:16:01;;;;;;;;;;;;;;;;;;4990727;28;19930;-86
2021/07/09 13:18:29;;;;;;;;;;;;;;;;;;4993671;28;20012;-85
2021/07/09 13:21:01;;;;;;;;;;;;;;;;;;4973012;28;19941;-85
2021/07/09 13:23:29;;;;;;;;;;;;;;;;;;4973926;28;20385;-85
2021/07/09 13:26:01;;;;;;;;;;;;;;;;;;4966024;28;19932;-85
2021/07/09 13:28:38;;;;;;;;;;;;;;;;;;4981717;28;19925;-84
2021/07/09 13:31:06;;;;;;;;;;;;;;;;;;4992304;28;19926;-84
2021/07/09 13:33:38;;;;;;;;;;;;;;;;;;4991502;28;19925;-85
2021/07/09 13:36:09;;;;;;;;;;;;;;;;;;4974109;28;20265;-84
2021/07/09 13:38:37;;;;;;;;;;;;;;;;;;4968789;28;19937;-84
2021/07/09 13:41:05;;;;;;;;;;;;;;;;;;4983284;28;19936;-84
2021/07/09 13:43:34;;;;;;;;;;;;;;;;;;5000714;28;19933;-85
2021/07/09 13:46:05;;;;;;;;;;;;;;;;;;4962415;28;19937;-86
2021/07/09 13:48:34;;;;;;;;;;;;;;;;;;5005847;28;19925;-85
2021/07/09 13:51:02;;;;;;;;;;;;;;;;;;4987942;28;19929;-85
2021/07/09 13:53:30;;;;;;;;;;;;;;;;;;5007002;28;19929;-86
2021/07/09 13:55:58;;;;;;;;;;;;;;;;;;4996639;28;19956;-85
2021/07/09 13:58:27;;;;;;;;;;;;;;;;;;5021077;28;19922;-83
2021/07/09 14:00:55;;;;;;;;;;;;;;;;;;4995617;28;19922;-85
2021/07/09 14:03:27;;;;;;;;;;;;;;;;;;5018953;28;20317;-85
2021/07/09 14:05:58;;;;;;;;;;;;;;;;;;4974183;28;19926;-86
2021/07/09 14:08:26;;;;;;;;;;;;;;;;;;4991038;28;19933;-84
2021/07/09 14:10:56;;;;;;;;;;;;;;;;;;4970605;28;19933;-84
2021/07/09 14:13:24;;;;;;;;;;;;;;;;;;4976993;28;20656;-85
2021/07/09 14:15:52;;;;;;;;;;;;;;;;;;4978912;28;20313;-84
2021/07/09 14:18:21;;;;;;;;;;;;;;;;;;4967486;28;19934;-85
2021/07/09 14:20:50;;;;;;;;;;;;;;;;;;4959352;28;19926;-84
2021/07/09 14:23:19;;;;;;;;;;;;;;;;;;5011437;28;19926;-84
2021/07/09 14:25:47;;;;;;;;;;;;;;;;;;4975441;28;19944;-85
2021/07/09 14:28:15;;;;;;;;;;;;;;;;;;4990324;28;19926;-84
2021/07/09 14:30:43;;;;;;;;;;;;;;;;;;5019036;28;20398;-85
2021/07/09 14:33:16;;;;;;;;;;;;;;;;;;5003627;28;19925;-84
2021/07/09 14:35:44;;;;;;;;;;;;;;;;;;4990955;28;19925;-83
2021/07/09 14:38:14;;;;;;;;;;;;;;;;;;4977879;28;19926;-84
2021/07/09 14:40:42;;;;;;;;;;;;;;;;;;4976720;28;20325;-84
2021/07/09 14:43:10;;;;;;;;;;;;;;;;;;5013856;28;19937;-84
2021/07/09 14:45:38;;;;;;;;;;;;;;;;;;4982087;28;19934;-83
2021/07/09 14:48:07;;;;;;;;;;;;;;;;;;4987650;28;20321;-84
2021/07/09 14:50:35;;;;;;;;;;;;;;;;;;5002070;28;19926;-84
2021/07/09 14:53:03;;;;;;;;;;;;;;;;;;4987127;28;19944;-85
2021/07/09 14:55:33;;;;;;;;;;;;;;;;;;4998586;28;20393;-85
2021/07/09 14:58:01;;;;;;;;;;;;;;;;;;4971469;28;19934;-84
2021/07/09 15:00:30;;;;;;;;;;;;;;;;;;5005368;28;19926;-85
2021/07/09 15:02:58;;;;;;;;;;;;;;;;;;4977063;28;19933;-84
2021/07/09 15:05:26;;;;;;;;;;;;;;;;;;4993540;28;20428;-85
2021/07/09 15:07:54;;;;;;;;;;;;;;;;;;4990859;28;19925;-84
2021/07/09 15:10:23;;;;;;;;;;;;;;;;;;4978428;28;19925;-84
2021/07/09 15:12:53;;;;;;;;;;;;;;;;;;4982954;28;19933;-85
2021/07/09 15:15:24;;;;;;;;;;;;;;;;;;5024048;28;19925;-83
2021/07/09 15:17:52;;;;;;;;;;;;;;;;;;4980105;28;19925;-84
2021/07/09 15:20:20;;;;;;;;;;;;;;;;;;4990357;28;19925;-85
2021/07/09 15:22:48;;;;;;;;;;;;;;;;;;4970876;28;19930;-84
2021/07/09 15:25:17;;;;;;;;;;;;;;;;;;4975136;28;20013;-84
2021/07/09 15:27:45;;;;;;;;;;;;;;;;;;5006795;28;19932;-84
2021/07/09 15:30:16;;;;;;;;;;;;;;;;;;5008917;28;19925;-84
2021/07/09 15:32:58;;;;;;;;;;;;;;;;;;5002980;28;19933;-84
2021/07/09 15:35:26;;;;;;;;;;;;;;;;;;5014077;28;19929;-84
2021/07/09 15:37:54;;;;;;;;;;;;;;;;;;4999841;28;19910;-84
2021/07/09 15:40:25;;;;;;;;;;;;;;;;;;4977671;28;19930;-84
2021/07/09 15:42:54;;;;;;;;;;;;;;;;;;5007887;28;19932;-83
2021/07/09 15:45:23;;;;;;;;;;;;;;;;;;5006181;28;19925;-83
2021/07/09 15:47:51;;;;;;;;;;;;;;;;;;5001726;28;19926;-84
2021/07/09 15:50:20;;;;;;;;;;;;;;;;;;4983282;28;19932;-85
2021/07/09 15:52:48;;;;;;;;;;;;;;;;;;4972231;28;19929;-85
2021/07/09 15:55:16;;;;;;;;;;;;;;;;;;5003553;28;19949;-84
2021/07/09 15:57:44;;;;;;;;;;;;;;;;;;4990999;28;19925;-84
2021/07/09 16:00:13;;;;;;;;;;;;;;;;;;4985494;28;19932;-84
2021/07/09 16:02:43;;;;;;;;;;;;;;;;;;4966203;28;20386;-84
2021/07/09 16:05:11;;;;;;;;;;;;;;;;;;4968866;28;19933;-84
2021/07/09 16:07:40;;;;;;;;;;;;;;;;;;5014176;28;19926;-84
2021/07/09 16:10:34;;;;;;;;;;;;;;;;;;4974081;28;19934;-85
2021/07/09 16:13:03;;;;;;;;;;;;;;;;;;4996268;28;19933;-86
2021/07/09 16:15:31;;;;;;;;;;;;;;;;;;4988736;28;19933;-86
2021/07/09 16:18:01;;;;;;;;;;;;;;;;;;4965129;28;19925;-84
2021/07/09 16:20:29;;;;;;;;;;;;;;;;;;4969453;28;19938;-84
2021/07/09 16:22:57;;;;;;;;;;;;;;;;;;4991100;28;19936;-87
2021/07/09 16:25:25;;;;;;;;;;;;;;;;;;5000575;28;20309;-87
2021/07/09 16:27:54;;;;;;;;;;;;;;;;;;4970298;28;19934;-84
2021/07/09 16:30:22;;;;;;;;;;;;;;;;;;4993895;28;19926;-85
2021/07/09 16:33:04;;;;;;;;;;;;;;;;;;4984201;28;20412;-85
2021/07/09 16:35:33;;;;;;;;;;;;;;;;;;4995165;28;19933;-85
2021/07/09 16:38:02;;;;;;;;;;;;;;;;;;4989340;28;20382;-85
2021/07/09 16:40:31;;;;;;;;;;;;;;;;;;4974607;28;20308;-85
2021/07/09 16:43:00;;;;;;;;;;;;;;;;;;4970618;28;19941;-84
2021/07/09 16:45:29;;;;;;;;;;;;;;;;;;4961752;28;19929;-85
2021/07/09 16:47:57;;;;;;;;;;;;;;;;;;4991893;28;19932;-85
2021/07/09 16:50:29;;;;;;;;;;;;;;;;;;4989794;28;19940;-85
2021/07/09 16:52:58;;;;;;;;;;;;;;;;;;5002032;28;19932;-85
2021/07/09 16:55:26;;;;;;;;;;;;;;;;;;4987365;28;19944;-85
2021/07/09 16:57:55;;;;;;;;;;;;;;;;;;5015541;28;19925;-85
2021/07/09 17:00:31;;;;;;;;;;;;;;;;;;4988918;28;19937;-86
2021/07/09 17:03:00;;;;;;;;;;;;;;;;;;4989906;28;20413;-87
2021/07/09 17:05:30;;;;;;;;;;;;;;;;;;5014749;28;19934;-88
2021/07/09 17:08:01;;;;;;;;;;;;;;;;;;4969497;28;19947;-88
2021/07/09 17:10:30;;;;;;;;;;;;;;;;;;4968564;28;20405;-88
2021/07/09 17:12:59;;;;;;;;;;;;;;;;;;4975203;28;19926;-88
2021/07/09 17:15:28;;;;;;;;;;;;;;;;;;4995561;28;19929;-88
2021/07/09 17:17:56;;;;;;;;;;;;;;;;;;5000552;28;19926;-89
2021/07/09 17:20:25;;;;;;;;;;;;;;;;;;4997445;28;19926;-89
2021/07/09 17:22:54;;;;;;;;;;;;;;;;;;5001412;28;20337;-89
2021/07/09 17:25:23;;;;;;;;;;;;;;;;;;4980727;28;19941;-89
2021/07/09 17:27:51;;;;;;;;;;;;;;;;;;4967252;28;19933;-89
2021/07/09 17:30:20;;;;;;;;;;;;;;;;;;4997594;28;19930;-89
2021/07/09 17:32:49;;;;;;;;;;;;;;;;;;5003892;28;19940;-89
2021/07/09 17:35:19;;;;;;;;;;;;;;;;;;4991890;28;19926;-89
2021/07/09 17:37:47;;;;;;;;;;;;;;;;;;4972993;28;19932;-89
2021/07/09 17:40:18;;;;;;;;;;;;;;;;;;4996569;28;19929;-89
2021/07/09 17:42:51;;;;;;;;;;;;;;;;;;5002247;28;20392;-88
2021/07/09 17:45:50;;;;;;;;;;;;;;;;;;4979683;28;20424;-88
2021/07/09 17:49:09;;;;;;;;;;;;;;;;;;5003605;28;19929;-87
2021/07/09 17:51:54;;;;;;;;;;;;;;;;;;4941792;28;19934;-88
2021/07/09 18:03:18;;;;;;;;;;;;;;;;;;4875246;29;20383;-88
2021/07/09 18:06:41;;;;;;;;;;;;;;;;;;4795809;29;19977;-87
2021/07/09 18:33:34;;;;;;;;;;;;;;;;;;4937995;28;19926;-90
